Weerstation
Sluispark-LeuvenLeuven-Sluispark



Het weer levert geen direct gevaar op.    Er zijn geen waarschuwingen afgegeven.

Nabijgelegen vliegvelden - METAR rapporten

   
EBBR - Wilsele bij Leuven
Gewijzigd: 10-12-2018 09:50
Licht bewolkt    Wind: Westen 14.8 km/h
Licht bewolkt
Wind: Wind: Westen 14.8 km/h
Temperatuur: 5°C
Voelt als: 2°C
Dauwpunt: 3°C
Vochtigheid: 87%
Barometer: 1023 hPa
Bewolking: Licht bewolkt
Zicht: meer dan 10 km
Bewolking: Licht bewolkt 792.5 m
EBBR 100850Z 26008KT 9999 FEW026 05/03 Q1023 NOSIG
EBAW - Antwerp
Gewijzigd: 10-12-2018 09:50
Licht bewolkt    Wind: Westen 13 km/h
Licht bewolkt
Wind: Wind: Westen 13 km/h
Temperatuur: 6°C
Voelt als: 3°C
Dauwpunt: 3°C
Vochtigheid: 81%
Barometer: 1023 hPa
Bewolking: Licht bewolkt
Zicht: meer dan 10 km
Bewolking: Licht bewolkt 731.5 m
EBAW 100850Z 27007KT 9999 FEW024 06/03 Q1023 NOSIG
EBLG - Li├Ęge
Gewijzigd: 10-12-2018 09:50
Licht bewolkt    Wind: Westen 18.5 km/h
Licht bewolkt
Wind: Wind: Westen 18.5 km/h
Temperatuur: 4°C
Voelt als: 0°C
Dauwpunt: 2°C
Vochtigheid: 87%
Barometer: 1023 hPa
Bewolking: Licht bewolkt
Zicht: meer dan 10 km
Bewolking: Licht bewolkt 609.6 m
EBLG 100850Z 26010KT 9999 FEW020 04/02 Q1023 NOSIG
EBCV - Mons/Bergen
Gewijzigd: 10-12-2018 09:25
Helder    Wind: Westen 14.8 km/h
Helder
Wind: Wind: Westen 14.8 km/h
Temperatuur: 5°C
Voelt als: 2°C
Dauwpunt: 4°C
Vochtigheid: 93%
Barometer: 1024 hPa
Bewolking: Helder
Zicht: meer dan 10 km
Bewolking: Helder
EBCV 100825Z AUTO 26008KT 9999 NCD 05/04 Q1024 BLU
EHBK - Maastricht
Gewijzigd: 10-12-2018 09:25
Grotendeels bewolkt    Wind: WZW 11.1 km/h
Grotendeels bewolkt
Wind: Wind: WZW 11.1 km/h
Temperatuur: 4°C
Voelt als: 1°C
Dauwpunt: 3°C
Vochtigheid: 93%
Barometer: 1022 hPa
Bewolking: Grotendeels bewolkt
Zicht: meer dan 10 km
Bewolking: Gedeeltelijk bewolkt 1097.3 m,
Grotendeels bewolkt 1219.2 m
EHBK 100825Z AUTO 24006KT 210V290 9999 SCT036 BKN040 04/03 Q1022 TEMPO 26011G21KT 6000 SHRA SCT018CB
ELLX - Luxemburg
Gewijzigd: 10-12-2018 09:50
Grotendeels bewolkt    Wind: Westen 20.4 km/h
Grotendeels bewolkt
Wind: Wind: Westen 20.4 km/h
Temperatuur: 3°C
Voelt als: -2°C
Dauwpunt: 2°C
Vochtigheid: 93%
Barometer: 1022 hPa
Bewolking: Grotendeels bewolkt
Zicht: meer dan 10 km
Bewolking: Licht bewolkt 213.4 m,
Gedeeltelijk bewolkt 609.6 m,
Grotendeels bewolkt 1158.2 m
ELLX 100850Z 27011KT 9999 FEW007 SCT020 BKN038 03/02 Q1022 NOSIG
EBOS - Oostende
Gewijzigd: 10-12-2018 09:50
Gedeeltelijk bewolkt    Wind: WNW 27.8 km/h
Gedeeltelijk bewolkt
Wind: Wind: WNW 27.8 km/h
Temperatuur: 8°C
Voelt als: 4°C
Dauwpunt: 4°C
Vochtigheid: 76%
Barometer: 1025 hPa
Bewolking: Gedeeltelijk bewolkt
Zicht: meer dan 10 km
Bewolking: Gedeeltelijk bewolkt 670.6 m
EBOS 100850Z 30015KT 9999 SCT022 08/04 Q1025 NOSIG
  

Script ontwikkeld door  Saratoga-weather.org Aangepast voor de template door  Weerstation Leuven

U vindt ons ook hier:

UK Metoffice

WeatherCloud

European Weather Network

Weather Underground

Benelux Weather Network

AWEKAS

WeatherlinkIP

Het Weer Aktueel

Apparatuur in gebruik:

Weer-station
Davis VP2 weatherstation

Weer-programma
Meteobridge

Weer-computer
D-Link DIR-505

Webleverancier
Robohost

Davis VP2 weatherstation

Meteobridge

D-Link DIR-505

Robohost